sensor_id;sensor_type;location;lat;lon;timestamp;pressure;altitude;pressure_sealevel;temperature;humidity
11912;BME280;6016;41.928;25.556;2023-02-11T00:00:55;100921.09;;;-0.41;53.89
11912;BME280;6016;41.928;25.556;2023-02-11T00:03:21;100930.69;;;-0.48;53.01
11912;BME280;6016;41.928;25.556;2023-02-11T00:05:56;100980.31;;;-0.15;52.51
11912;BME280;6016;41.928;25.556;2023-02-11T00:08:25;100917.00;;;-0.57;53.61
11912;BME280;6016;41.928;25.556;2023-02-11T00:10:52;100984.28;;;-0.49;54.85
11912;BME280;6016;41.928;25.556;2023-02-11T00:13:19;100987.00;;;-0.58;54.75
11912;BME280;6016;41.928;25.556;2023-02-11T00:15:46;100948.56;;;-0.91;54.71
11912;BME280;6016;41.928;25.556;2023-02-11T00:18:13;100927.72;;;-0.81;55.01
11912;BME280;6016;41.928;25.556;2023-02-11T00:20:40;100953.53;;;-0.75;56.19
11912;BME280;6016;41.928;25.556;2023-02-11T00:23:07;100872.53;;;-1.54;53.99
11912;BME280;6016;41.928;25.556;2023-02-11T00:25:37;100983.75;;;-0.73;53.74
11912;BME280;6016;41.928;25.556;2023-02-11T00:28:04;100980.53;;;-0.95;54.43
11912;BME280;6016;41.928;25.556;2023-02-11T00:30:31;100989.03;;;-0.80;54.49
11912;BME280;6016;41.928;25.556;2023-02-11T00:32:58;100929.25;;;-1.34;58.55
11912;BME280;6016;41.928;25.556;2023-02-11T00:35:25;100775.00;;;-2.19;57.82
11912;BME280;6016;41.928;25.556;2023-02-11T00:37:52;100977.94;;;-0.93;57.08
11912;BME280;6016;41.928;25.556;2023-02-11T00:40:19;100985.56;;;-0.82;56.12
11912;BME280;6016;41.928;25.556;2023-02-11T00:42:47;100924.81;;;-1.24;54.63
11912;BME280;6016;41.928;25.556;2023-02-11T00:45:14;100982.97;;;-0.79;54.62
11912;BME280;6016;41.928;25.556;2023-02-11T00:47:41;100961.19;;;-0.66;53.87
11912;BME280;6016;41.928;25.556;2023-02-11T00:50:08;100931.31;;;-0.92;53.67
11912;BME280;6016;41.928;25.556;2023-02-11T00:52:34;100972.28;;;-0.56;53.41
11912;BME280;6016;41.928;25.556;2023-02-11T00:55:01;100827.63;;;-1.50;53.52
11912;BME280;6016;41.928;25.556;2023-02-11T00:57:28;100966.38;;;-0.67;53.59
11912;BME280;6016;41.928;25.556;2023-02-11T00:59:56;100949.22;;;-0.75;53.83
11912;BME280;6016;41.928;25.556;2023-02-11T01:02:23;100974.03;;;-0.60;53.48
11912;BME280;6016;41.928;25.556;2023-02-11T01:04:50;100984.41;;;-0.60;53.09
11912;BME280;6016;41.928;25.556;2023-02-11T01:07:16;100868.13;;;-1.46;53.17
11912;BME280;6016;41.928;25.556;2023-02-11T01:09:43;100974.31;;;-0.80;54.23
11912;BME280;6016;41.928;25.556;2023-02-11T01:12:10;100967.47;;;-0.84;54.21
11912;BME280;6016;41.928;25.556;2023-02-11T01:14:37;100977.06;;;-0.91;54.57
11912;BME280;6016;41.928;25.556;2023-02-11T01:17:05;100965.97;;;-1.02;54.63
11912;BME280;6016;41.928;25.556;2023-02-11T01:19:32;100965.28;;;-1.18;54.93
11912;BME280;6016;41.928;25.556;2023-02-11T01:21:59;100962.06;;;-1.37;55.46
11912;BME280;6016;41.928;25.556;2023-02-11T01:24:26;100906.41;;;-1.74;56.85
11912;BME280;6016;41.928;25.556;2023-02-11T01:26:52;100898.69;;;-1.80;56.12
11912;BME280;6016;41.928;25.556;2023-02-11T01:29:19;100961.31;;;-1.49;56.54
11912;BME280;6016;41.928;25.556;2023-02-11T01:31:46;100962.94;;;-1.40;56.00
11912;BME280;6016;41.928;25.556;2023-02-11T01:34:15;100956.03;;;-1.39;56.05
11912;BME280;6016;41.928;25.556;2023-02-11T01:36:41;100965.50;;;-1.37;56.22
11912;BME280;6016;41.928;25.556;2023-02-11T01:39:08;100952.66;;;-1.46;55.61
11912;BME280;6016;41.928;25.556;2023-02-11T01:41:36;100951.03;;;-1.57;55.71
11912;BME280;6016;41.928;25.556;2023-02-11T01:44:27;100951.13;;;-1.64;56.26
11912;BME280;6016;41.928;25.556;2023-02-11T01:46:54;100944.34;;;-1.76;56.64
11912;BME280;6016;41.928;25.556;2023-02-11T01:49:26;100923.59;;;-1.70;55.94
11912;BME280;6016;41.928;25.556;2023-02-11T01:51:56;100943.28;;;-1.58;56.73
11912;BME280;6016;41.928;25.556;2023-02-11T01:54:28;100926.09;;;-1.61;55.78
11912;BME280;6016;41.928;25.556;2023-02-11T01:57:15;100949.91;;;-1.29;55.30
11912;BME280;6016;41.928;25.556;2023-02-11T02:00:06;100942.09;;;-1.24;55.54
11912;BME280;6016;41.928;25.556;2023-02-11T02:02:38;100884.78;;;-1.68;55.02
11912;BME280;6016;41.928;25.556;2023-02-11T02:05:16;100948.19;;;-1.32;55.12
11912;BME280;6016;41.928;25.556;2023-02-11T02:07:51;100946.50;;;-1.34;55.40
11912;BME280;6016;41.928;25.556;2023-02-11T02:10:22;100937.94;;;-1.41;55.41
11912;BME280;6016;41.928;25.556;2023-02-11T02:12:51;100933.69;;;-1.47;55.17
11912;BME280;6016;41.928;25.556;2023-02-11T02:15:20;100887.63;;;-1.93;55.24
11912;BME280;6016;41.928;25.556;2023-02-11T02:17:55;100946.06;;;-1.75;55.77
11912;BME280;6016;41.928;25.556;2023-02-11T02:29:25;100951.44;;;-1.99;57.16
11912;BME280;6016;41.928;25.556;2023-02-11T02:32:20;100906.84;;;-2.26;56.63
11912;BME280;6016;41.928;25.556;2023-02-11T02:34:50;100952.41;;;-2.12;57.15
11912;BME280;6016;41.928;25.556;2023-02-11T02:37:23;100949.81;;;-2.10;57.33
11912;BME280;6016;41.928;25.556;2023-02-11T02:39:54;100948.06;;;-2.08;57.06
11912;BME280;6016;41.928;25.556;2023-02-11T02:42:23;100952.47;;;-2.20;57.15
11912;BME280;6016;41.928;25.556;2023-02-11T02:44:51;100950.81;;;-2.30;57.81
11912;BME280;6016;41.928;25.556;2023-02-11T02:47:18;100877.19;;;-2.90;57.59
11912;BME280;6016;41.928;25.556;2023-02-11T02:49:47;100949.22;;;-2.48;60.06
11912;BME280;6016;41.928;25.556;2023-02-11T02:52:25;100943.09;;;-2.32;59.31
11912;BME280;6016;41.928;25.556;2023-02-11T02:55:38;100943.66;;;-1.95;56.87
11912;BME280;6016;41.928;25.556;2023-02-11T02:58:28;100951.31;;;-1.85;56.05
11912;BME280;6016;41.928;25.556;2023-02-11T03:01:02;100915.28;;;-2.02;56.42
11912;BME280;6016;41.928;25.556;2023-02-11T03:03:38;100958.22;;;-1.84;55.43
11912;BME280;6016;41.928;25.556;2023-02-11T03:06:12;100953.94;;;-1.91;55.68
11912;BME280;6016;41.928;25.556;2023-02-11T03:08:45;100944.66;;;-2.10;56.07
11912;BME280;6016;41.928;25.556;2023-02-11T03:11:16;100932.66;;;-2.22;56.35
11912;BME280;6016;41.928;25.556;2023-02-11T03:13:45;100885.59;;;-2.62;56.14
11912;BME280;6016;41.928;25.556;2023-02-11T03:16:15;100946.28;;;-2.00;55.83
11912;BME280;6016;41.928;25.556;2023-02-11T03:18:47;100947.97;;;-1.98;55.85
11912;BME280;6016;41.928;25.556;2023-02-11T03:21:17;100941.94;;;-1.93;55.84
11912;BME280;6016;41.928;25.556;2023-02-11T03:23:49;100721.63;;;-3.14;55.96
11912;BME280;6016;41.928;25.556;2023-02-11T03:26:22;100916.97;;;-1.99;55.55
11912;BME280;6016;41.928;25.556;2023-02-11T03:28:52;100943.69;;;-1.97;55.73
11912;BME280;6016;41.928;25.556;2023-02-11T03:31:26;100834.06;;;-2.77;56.22
11912;BME280;6016;41.928;25.556;2023-02-11T03:33:57;100947.31;;;-2.21;55.98
11912;BME280;6016;41.928;25.556;2023-02-11T03:36:32;100883.09;;;-2.74;57.20
11912;BME280;6016;41.928;25.556;2023-02-11T03:39:01;100942.31;;;-2.45;59.43
11912;BME280;6016;41.928;25.556;2023-02-11T03:41:30;100935.47;;;-2.49;58.49
11912;BME280;6016;41.928;25.556;2023-02-11T03:44:00;100769.94;;;-3.40;56.45
11912;BME280;6016;41.928;25.556;2023-02-11T03:46:30;100929.34;;;-2.35;56.39
11912;BME280;6016;41.928;25.556;2023-02-11T03:49:01;100813.59;;;-3.04;56.18
11912;BME280;6016;41.928;25.556;2023-02-11T03:51:30;100850.44;;;-2.78;56.26
11912;BME280;6016;41.928;25.556;2023-02-11T03:54:00;100812.75;;;-3.03;56.07
11912;BME280;6016;41.928;25.556;2023-02-11T03:56:30;100918.16;;;-2.41;56.44
11912;BME280;6016;41.928;25.556;2023-02-11T03:58:58;100894.09;;;-2.44;56.15
11912;BME280;6016;41.928;25.556;2023-02-11T04:01:25;100935.16;;;-2.10;55.28
11912;BME280;6016;41.928;25.556;2023-02-11T04:03:52;100932.53;;;-2.04;55.82
11912;BME280;6016;41.928;25.556;2023-02-11T04:06:19;100869.97;;;-2.45;55.67
11912;BME280;6016;41.928;25.556;2023-02-11T04:08:47;100879.50;;;-2.53;56.31
11912;BME280;6016;41.928;25.556;2023-02-11T04:11:13;100938.75;;;-2.25;56.23
11912;BME280;6016;41.928;25.556;2023-02-11T04:13:40;100686.91;;;-3.94;56.63
11912;BME280;6016;41.928;25.556;2023-02-11T04:16:07;100925.97;;;-2.45;56.38
11912;BME280;6016;41.928;25.556;2023-02-11T04:18:34;100932.84;;;-2.44;56.68
11912;BME280;6016;41.928;25.556;2023-02-11T04:21:01;100924.28;;;-2.52;57.14
11912;BME280;6016;41.928;25.556;2023-02-11T04:23:27;100927.81;;;-2.66;57.36
11912;BME280;6016;41.928;25.556;2023-02-11T04:25:56;100862.66;;;-3.07;57.68
11912;BME280;6016;41.928;25.556;2023-02-11T04:28:22;100856.63;;;-3.06;57.53
11912;BME280;6016;41.928;25.556;2023-02-11T04:30:51;100804.34;;;-3.36;57.61
11912;BME280;6016;41.928;25.556;2023-02-11T04:33:17;100918.38;;;-2.65;57.80
11912;BME280;6016;41.928;25.556;2023-02-11T04:35:44;100874.69;;;-3.03;57.52
11912;BME280;6016;41.928;25.556;2023-02-11T04:38:11;100922.66;;;-2.67;57.91
11912;BME280;6016;41.928;25.556;2023-02-11T04:40:38;100925.28;;;-2.74;57.49
11912;BME280;6016;41.928;25.556;2023-02-11T04:43:07;100895.28;;;-2.92;57.84
11912;BME280;6016;41.928;25.556;2023-02-11T04:45:34;100925.31;;;-2.77;58.16
11912;BME280;6016;41.928;25.556;2023-02-11T04:48:01;100928.75;;;-2.76;58.16
11912;BME280;6016;41.928;25.556;2023-02-11T04:50:28;100713.53;;;-3.97;58.02
11912;BME280;6016;41.928;25.556;2023-02-11T04:52:55;100920.94;;;-2.69;56.65
11912;BME280;6016;41.928;25.556;2023-02-11T04:55:22;100746.00;;;-3.62;57.07
11912;BME280;6016;41.928;25.556;2023-02-11T04:57:49;100866.84;;;-2.89;57.21
11912;BME280;6016;41.928;25.556;2023-02-11T05:00:17;100917.38;;;-2.50;56.85
11912;BME280;6016;41.928;25.556;2023-02-11T05:02:44;100915.69;;;-2.55;56.31
11912;BME280;6016;41.928;25.556;2023-02-11T05:05:11;100921.78;;;-2.65;57.14
11912;BME280;6016;41.928;25.556;2023-02-11T05:07:37;100838.59;;;-3.12;56.05
11912;BME280;6016;41.928;25.556;2023-02-11T05:10:05;100923.47;;;-2.59;55.85
11912;BME280;6016;41.928;25.556;2023-02-11T05:12:31;100877.06;;;-2.70;56.18
11912;BME280;6016;41.928;25.556;2023-02-11T05:14:58;100231.00;;;-6.65;55.82
11912;BME280;6016;41.928;25.556;2023-02-11T05:17:26;100817.06;;;-3.08;56.54
11912;BME280;6016;41.928;25.556;2023-02-11T05:19:53;100838.56;;;-3.06;56.42
11912;BME280;6016;41.928;25.556;2023-02-11T05:22:20;100926.94;;;-2.63;56.80
11912;BME280;6016;41.928;25.556;2023-02-11T05:24:47;100927.81;;;-2.66;57.12
11912;BME280;6016;41.928;25.556;2023-02-11T05:27:14;100923.47;;;-2.61;56.62
11912;BME280;6016;41.928;25.556;2023-02-11T05:29:41;100893.47;;;-2.82;56.21
11912;BME280;6016;41.928;25.556;2023-02-11T05:32:07;100903.78;;;-2.79;56.27
11912;BME280;6016;41.928;25.556;2023-02-11T05:34:36;100903.81;;;-2.80;56.60
11912;BME280;6016;41.928;25.556;2023-02-11T05:37:02;100901.19;;;-2.79;57.20
11912;BME280;6016;41.928;25.556;2023-02-11T05:39:29;100905.53;;;-2.84;56.86
11912;BME280;6016;41.928;25.556;2023-02-11T05:41:56;100922.03;;;-3.12;56.64
11912;BME280;6016;41.928;25.556;2023-02-11T05:44:23;100927.88;;;-2.75;56.73
11912;BME280;6016;41.928;25.556;2023-02-11T05:46:50;100886.69;;;-3.00;57.67
11912;BME280;6016;41.928;25.556;2023-02-11T05:49:16;100972.53;;;-2.56;56.97
11912;BME280;6016;41.928;25.556;2023-02-11T05:51:45;100842.84;;;-3.05;57.04
11912;BME280;6016;41.928;25.556;2023-02-11T05:54:12;100937.13;;;-2.42;56.75
11912;BME280;6016;41.928;25.556;2023-02-11T05:56:39;100936.25;;;-2.37;59.98
11912;BME280;6016;41.928;25.556;2023-02-11T05:59:06;100936.97;;;-2.21;58.93
11912;BME280;6016;41.928;25.556;2023-02-11T06:01:33;100930.75;;;-1.95;56.27
11912;BME280;6016;41.928;25.556;2023-02-11T06:03:59;100827.63;;;-2.28;55.80
11912;BME280;6016;41.928;25.556;2023-02-11T06:06:26;100916.50;;;-1.51;54.51
11912;BME280;6016;41.928;25.556;2023-02-11T06:08:54;100943.66;;;-1.13;54.05
11912;BME280;6016;41.928;25.556;2023-02-11T06:11:21;100931.56;;;-1.12;53.91
11912;BME280;6016;41.928;25.556;2023-02-11T06:13:48;100934.78;;;-0.94;53.28
11912;BME280;6016;41.928;25.556;2023-02-11T06:16:15;100934.72;;;0.23;51.22
11912;BME280;6016;41.928;25.556;2023-02-11T06:18:41;100935.59;;;0.69;48.76
11912;BME280;6016;41.928;25.556;2023-02-11T06:21:09;100932.31;;;0.60;49.27
11912;BME280;6016;41.928;25.556;2023-02-11T06:23:37;100877.81;;;0.14;50.16
11912;BME280;6016;41.928;25.556;2023-02-11T06:26:07;100880.31;;;0.19;49.84
11912;BME280;6016;41.928;25.556;2023-02-11T06:28:34;100887.84;;;0.33;49.79
11912;BME280;6016;41.928;25.556;2023-02-11T06:31:03;100929.59;;;0.66;49.48
11912;BME280;6016;41.928;25.556;2023-02-11T06:33:30;100937.28;;;0.72;49.30
11912;BME280;6016;41.928;25.556;2023-02-11T06:35:57;100918.69;;;0.48;50.15
11912;BME280;6016;41.928;25.556;2023-02-11T06:38:24;100933.91;;;0.67;49.92
11912;BME280;6016;41.928;25.556;2023-02-11T06:40:51;100931.38;;;0.62;50.94
11912;BME280;6016;41.928;25.556;2023-02-11T06:43:19;100833.78;;;0.09;51.03
11912;BME280;6016;41.928;25.556;2023-02-11T06:45:51;100908.31;;;0.47;50.79
11912;BME280;6016;41.928;25.556;2023-02-11T06:48:18;100925.22;;;0.68;50.74
11912;BME280;6016;41.928;25.556;2023-02-11T06:50:48;100877.72;;;0.63;51.33
11912;BME280;6016;41.928;25.556;2023-02-11T06:53:15;100790.88;;;0.37;51.25
11912;BME280;6016;41.928;25.556;2023-02-11T06:55:45;100869.34;;;2.33;48.15
11912;BME280;6016;41.928;25.556;2023-02-11T06:58:14;100817.81;;;5.67;40.31
11912;BME280;6016;41.928;25.556;2023-02-11T07:00:43;100909.78;;;9.11;35.15
11912;BME280;6016;41.928;25.556;2023-02-11T07:03:10;100868.59;;;10.61;31.93
11912;BME280;6016;41.928;25.556;2023-02-11T07:05:37;100844.25;;;11.13;30.71
11912;BME280;6016;41.928;25.556;2023-02-11T07:08:09;100853.13;;;12.31;28.62
11912;BME280;6016;41.928;25.556;2023-02-11T07:10:36;100894.69;;;13.67;27.23
11912;BME280;6016;41.928;25.556;2023-02-11T07:13:08;100859.94;;;14.17;25.82
11912;BME280;6016;41.928;25.556;2023-02-11T07:15:35;100867.31;;;14.48;25.33
11912;BME280;6016;41.928;25.556;2023-02-11T07:18:07;100789.75;;;12.67;25.19
11912;BME280;6016;41.928;25.556;2023-02-11T07:20:33;100900.44;;;12.23;29.41
11912;BME280;6016;41.928;25.556;2023-02-11T07:23:00;100894.00;;;10.91;29.24
11912;BME280;6016;41.928;25.556;2023-02-11T07:25:27;100880.63;;;10.94;30.37
11912;BME280;6016;41.928;25.556;2023-02-11T07:27:54;100899.13;;;10.65;29.40
11912;BME280;6016;41.928;25.556;2023-02-11T07:30:21;100830.09;;;9.39;30.23
11912;BME280;6016;41.928;25.556;2023-02-11T07:32:48;100904.16;;;9.49;31.71
11912;BME280;6016;41.928;25.556;2023-02-11T07:35:18;100851.00;;;9.88;31.61
11912;BME280;6016;41.928;25.556;2023-02-11T07:37:47;100740.31;;;9.59;29.69
11912;BME280;6016;41.928;25.556;2023-02-11T07:40:18;100891.25;;;12.03;27.92
11912;BME280;6016;41.928;25.556;2023-02-11T07:42:44;100890.84;;;12.85;27.38
11912;BME280;6016;41.928;25.556;2023-02-11T07:45:11;100665.56;;;12.40;27.41
11912;BME280;6016;41.928;25.556;2023-02-11T07:47:38;100878.13;;;13.88;26.23
11912;BME280;6016;41.928;25.556;2023-02-11T07:50:07;100879.03;;;14.57;26.00
11912;BME280;6016;41.928;25.556;2023-02-11T07:52:35;100879.50;;;15.40;25.02
11912;BME280;6016;41.928;25.556;2023-02-11T07:55:02;100862.41;;;16.18;25.26
11912;BME280;6016;41.928;25.556;2023-02-11T07:57:29;100829.78;;;15.95;23.22
11912;BME280;6016;41.928;25.556;2023-02-11T07:59:56;100874.38;;;17.55;23.56
11912;BME280;6016;41.928;25.556;2023-02-11T08:02:23;100793.53;;;17.35;22.77
11912;BME280;6016;41.928;25.556;2023-02-11T08:04:49;100856.13;;;17.40;22.25
11912;BME280;6016;41.928;25.556;2023-02-11T08:07:17;100858.72;;;17.99;21.94
11912;BME280;6016;41.928;25.556;2023-02-11T08:09:45;100757.56;;;16.19;21.96
11912;BME280;6016;41.928;25.556;2023-02-11T08:12:12;100858.81;;;16.80;23.95
11912;BME280;6016;41.928;25.556;2023-02-11T08:14:39;100791.06;;;16.63;22.71
11912;BME280;6016;41.928;25.556;2023-02-11T08:17:05;100811.00;;;15.54;24.13
11912;BME280;6016;41.928;25.556;2023-02-11T08:19:32;100847.88;;;14.36;24.07
11912;BME280;6016;41.928;25.556;2023-02-11T08:21:59;100697.28;;;13.35;27.29
11912;BME280;6016;41.928;25.556;2023-02-11T08:24:26;100862.25;;;13.15;25.77
11912;BME280;6016;41.928;25.556;2023-02-11T08:26:55;100730.53;;;12.44;27.51
11912;BME280;6016;41.928;25.556;2023-02-11T08:29:21;100807.06;;;12.47;27.19
11912;BME280;6016;41.928;25.556;2023-02-11T08:31:48;100855.97;;;12.54;27.42
11912;BME280;6016;41.928;25.556;2023-02-11T08:34:15;100855.75;;;12.31;30.84
11912;BME280;6016;41.928;25.556;2023-02-11T08:36:45;100853.44;;;12.40;28.96
11912;BME280;6016;41.928;25.556;2023-02-11T08:39:13;100825.69;;;12.45;28.30
11912;BME280;6016;41.928;25.556;2023-02-11T08:41:40;100856.19;;;12.88;28.20
11912;BME280;6016;41.928;25.556;2023-02-11T08:44:09;100854.56;;;13.23;27.03
11912;BME280;6016;41.928;25.556;2023-02-11T08:46:36;100783.22;;;13.08;27.19
11912;BME280;6016;41.928;25.556;2023-02-11T08:49:03;100847.06;;;13.77;27.91
11912;BME280;6016;41.928;25.556;2023-02-11T08:51:30;100850.28;;;13.93;27.44
11912;BME280;6016;41.928;25.556;2023-02-11T08:53:57;100834.53;;;13.68;26.90
11912;BME280;6016;41.928;25.556;2023-02-11T08:56:25;100845.84;;;13.34;28.35
11912;BME280;6016;41.928;25.556;2023-02-11T08:58:52;100793.84;;;12.84;26.63
11912;BME280;6016;41.928;25.556;2023-02-11T09:01:23;100843.41;;;12.19;26.85
11912;BME280;6016;41.928;25.556;2023-02-11T09:03:50;100848.75;;;11.25;27.72
11912;BME280;6016;41.928;25.556;2023-02-11T09:06:17;100828.97;;;11.31;31.77
11912;BME280;6016;41.928;25.556;2023-02-11T09:08:47;100790.44;;;11.41;29.04
11912;BME280;6016;41.928;25.556;2023-02-11T09:11:15;100828.78;;;12.13;30.38
11912;BME280;6016;41.928;25.556;2023-02-11T09:13:43;100831.66;;;12.23;28.44
11912;BME280;6016;41.928;25.556;2023-02-11T09:16:16;100811.75;;;12.04;27.44
11912;BME280;6016;41.928;25.556;2023-02-11T09:18:45;100831.03;;;12.19;28.09
11912;BME280;6016;41.928;25.556;2023-02-11T09:21:12;100787.94;;;11.78;28.68
11912;BME280;6016;41.928;25.556;2023-02-11T09:23:40;100813.56;;;12.30;27.82
11912;BME280;6016;41.928;25.556;2023-02-11T09:26:12;100668.69;;;11.31;28.27
11912;BME280;6016;41.928;25.556;2023-02-11T09:28:39;100820.53;;;12.18;27.69
11912;BME280;6016;41.928;25.556;2023-02-11T09:31:08;100736.00;;;11.13;28.04
11912;BME280;6016;41.928;25.556;2023-02-11T09:33:38;100821.81;;;10.78;28.97
11912;BME280;6016;41.928;25.556;2023-02-11T09:36:08;100827.66;;;10.83;30.46
11912;BME280;6016;41.928;25.556;2023-02-11T09:38:35;100766.94;;;9.97;30.08
11912;BME280;6016;41.928;25.556;2023-02-11T09:41:02;100732.69;;;9.83;30.67
11912;BME280;6016;41.928;25.556;2023-02-11T09:43:35;100728.06;;;9.87;31.77
11912;BME280;6016;41.928;25.556;2023-02-11T09:46:04;100808.88;;;10.46;30.01
11912;BME280;6016;41.928;25.556;2023-02-11T09:48:37;100777.00;;;10.34;29.97
11912;BME280;6016;41.928;25.556;2023-02-11T09:51:15;100755.34;;;10.14;30.45
11912;BME280;6016;41.928;25.556;2023-02-11T09:53:50;100777.19;;;9.88;30.46
11912;BME280;6016;41.928;25.556;2023-02-11T09:56:23;100762.88;;;9.77;30.40
11912;BME280;6016;41.928;25.556;2023-02-11T09:58:50;100773.81;;;9.85;32.47
11912;BME280;6016;41.928;25.556;2023-02-11T10:01:27;100654.16;;;8.38;30.97
11912;BME280;6016;41.928;25.556;2023-02-11T10:04:03;100767.94;;;9.21;32.93
11912;BME280;6016;41.928;25.556;2023-02-11T10:06:38;100764.25;;;9.39;31.86
11912;BME280;6016;41.928;25.556;2023-02-11T10:09:19;100680.09;;;8.77;32.26
11912;BME280;6016;41.928;25.556;2023-02-11T10:11:56;100650.19;;;8.94;32.49
11912;BME280;6016;41.928;25.556;2023-02-11T10:14:52;100750.22;;;9.39;31.29
11912;BME280;6016;41.928;25.556;2023-02-11T10:17:27;100739.91;;;9.65;31.54
11912;BME280;6016;41.928;25.556;2023-02-11T10:20:06;100705.38;;;9.55;30.63
11912;BME280;6016;41.928;25.556;2023-02-11T10:22:40;100673.19;;;9.35;32.22
11912;BME280;6016;41.928;25.556;2023-02-11T10:25:17;100729.75;;;10.02;31.26
11912;BME280;6016;41.928;25.556;2023-02-11T10:27:46;100729.00;;;10.00;30.81
11912;BME280;6016;41.928;25.556;2023-02-11T10:30:24;100338.34;;;8.15;32.86
11912;BME280;6016;41.928;25.556;2023-02-11T10:32:56;100699.63;;;10.21;31.78
11912;BME280;6016;41.928;25.556;2023-02-11T10:35:25;100716.13;;;10.79;29.34
11912;BME280;6016;41.928;25.556;2023-02-11T10:37:54;100706.38;;;10.94;29.33
11912;BME280;6016;41.928;25.556;2023-02-11T10:40:23;100686.94;;;10.95;29.32
11912;BME280;6016;41.928;25.556;2023-02-11T10:42:51;100690.66;;;11.19;30.13
11912;BME280;6016;41.928;25.556;2023-02-11T10:45:32;100665.94;;;11.20;29.58
11912;BME280;6016;41.928;25.556;2023-02-11T10:47:59;100636.34;;;10.89;29.16
11912;BME280;6016;41.928;25.556;2023-02-11T10:50:29;100680.31;;;11.16;29.83
11912;BME280;6016;41.928;25.556;2023-02-11T10:53:18;100612.50;;;10.50;33.08
11912;BME280;6016;41.928;25.556;2023-02-11T10:55:50;100670.91;;;10.71;30.66
11912;BME280;6016;41.928;25.556;2023-02-11T10:58:25;100597.72;;;10.20;30.71
11912;BME280;6016;41.928;25.556;2023-02-11T11:00:55;100638.31;;;10.17;31.00
11912;BME280;6016;41.928;25.556;2023-02-11T11:03:38;100661.78;;;10.35;31.85
11912;BME280;6016;41.928;25.556;2023-02-11T11:06:08;100655.38;;;10.39;33.77
11912;BME280;6016;41.928;25.556;2023-02-11T11:08:42;100580.47;;;9.87;33.63
11912;BME280;6016;41.928;25.556;2023-02-11T11:11:16;100630.00;;;9.81;31.32
11912;BME280;6016;41.928;25.556;2023-02-11T11:13:55;100638.50;;;9.72;31.88
11912;BME280;6016;41.928;25.556;2023-02-11T11:16:33;100593.53;;;9.61;31.73
11912;BME280;6016;41.928;25.556;2023-02-11T11:19:18;100636.19;;;9.95;31.23
11912;BME280;6016;41.928;25.556;2023-02-11T11:21:51;100550.63;;;9.59;32.84
11912;BME280;6016;41.928;25.556;2023-02-11T11:24:27;100562.81;;;9.74;32.04
11912;BME280;6016;41.928;25.556;2023-02-11T11:26:57;100621.28;;;10.08;32.92
11912;BME280;6016;41.928;25.556;2023-02-11T11:29:33;100617.53;;;9.98;31.76
11912;BME280;6016;41.928;25.556;2023-02-11T11:32:10;100619.09;;;9.73;32.76
11912;BME280;6016;41.928;25.556;2023-02-11T11:34:43;100602.72;;;9.82;32.03
11912;BME280;6016;41.928;25.556;2023-02-11T11:37:19;100604.06;;;10.03;32.24
11912;BME280;6016;41.928;25.556;2023-02-11T11:39:55;100592.50;;;9.91;31.73
11912;BME280;6016;41.928;25.556;2023-02-11T11:42:26;100583.41;;;9.82;32.20
11912;BME280;6016;41.928;25.556;2023-02-11T11:44:58;100530.28;;;9.61;32.86
11912;BME280;6016;41.928;25.556;2023-02-11T11:47:32;100473.84;;;9.23;31.98
11912;BME280;6016;41.928;25.556;2023-02-11T11:50:24;100510.66;;;9.52;34.31
11912;BME280;6016;41.928;25.556;2023-02-11T11:52:57;100550.31;;;9.78;35.40
11912;BME280;6016;41.928;25.556;2023-02-11T11:55:33;100541.94;;;9.71;31.59
11912;BME280;6016;41.928;25.556;2023-02-11T11:58:12;100509.59;;;9.69;34.07
11912;BME280;6016;41.928;25.556;2023-02-11T12:00:52;100562.88;;;10.14;32.31
11912;BME280;6016;41.928;25.556;2023-02-11T12:03:48;100557.91;;;10.10;31.29
11912;BME280;6016;41.928;25.556;2023-02-11T12:06:33;100549.31;;;10.21;31.22
11912;BME280;6016;41.928;25.556;2023-02-11T12:09:13;100512.63;;;9.90;30.42
11912;BME280;6016;41.928;25.556;2023-02-11T12:12:03;100495.91;;;9.77;30.51
11912;BME280;6016;41.928;25.556;2023-02-11T12:14:46;100516.50;;;10.12;31.85
11912;BME280;6016;41.928;25.556;2023-02-11T12:17:33;100528.22;;;10.34;29.98
11912;BME280;6016;41.928;25.556;2023-02-11T12:20:18;100471.22;;;10.05;30.21
11912;BME280;6016;41.928;25.556;2023-02-11T12:25:54;100456.47;;;10.16;30.06
11912;BME280;6016;41.928;25.556;2023-02-11T12:28:34;100518.69;;;10.59;28.87
11912;BME280;6016;41.928;25.556;2023-02-11T12:31:17;100500.53;;;10.13;28.15
11912;BME280;6016;41.928;25.556;2023-02-11T12:33:57;100488.88;;;10.18;28.73
11912;BME280;6016;41.928;25.556;2023-02-11T12:36:43;100359.53;;;9.40;28.59
11912;BME280;6016;41.928;25.556;2023-02-11T12:39:27;100503.69;;;10.46;30.11
11912;BME280;6016;41.928;25.556;2023-02-11T12:42:13;100460.50;;;10.34;28.45
11912;BME280;6016;41.928;25.556;2023-02-11T12:45:17;100515.41;;;10.42;26.74
11912;BME280;6016;41.928;25.556;2023-02-11T12:48:00;100504.75;;;10.57;27.44
11912;BME280;6016;41.928;25.556;2023-02-11T12:50:35;100482.50;;;10.48;28.04
11912;BME280;6016;41.928;25.556;2023-02-11T12:53:19;100321.88;;;9.65;27.09
11912;BME280;6016;41.928;25.556;2023-02-11T12:56:11;100442.56;;;10.26;26.64
11912;BME280;6016;41.928;25.556;2023-02-11T12:58:51;100503.19;;;10.67;26.67
11912;BME280;6016;41.928;25.556;2023-02-11T13:01:24;100476.19;;;10.76;26.84
11912;BME280;6016;41.928;25.556;2023-02-11T13:03:56;100426.84;;;10.25;25.11
11912;BME280;6016;41.928;25.556;2023-02-11T13:06:32;100395.69;;;9.91;25.51
11912;BME280;6016;41.928;25.556;2023-02-11T13:09:04;100426.22;;;10.08;25.30
11912;BME280;6016;41.928;25.556;2023-02-11T13:11:36;100472.47;;;10.53;26.42
11912;BME280;6016;41.928;25.556;2023-02-11T13:14:08;100444.34;;;10.26;26.90
11912;BME280;6016;41.928;25.556;2023-02-11T13:16:41;100478.84;;;10.36;24.50
11912;BME280;6016;41.928;25.556;2023-02-11T13:19:17;100470.00;;;10.37;26.87
11912;BME280;6016;41.928;25.556;2023-02-11T13:21:59;100467.25;;;10.25;24.64
11912;BME280;6016;41.928;25.556;2023-02-11T13:24:33;100464.38;;;10.16;25.71